Time;durP1;ratioP1;P1;durP2;ratioP2;P2;SDS_P1;SDS_P2;PMS_P1;PMS_P2;Temp;Humidity;BMP_temperature;BMP_pressure;BME280_temperature;BME280_humidity;BME280_pressure;Samples;Min_cycle;Max_cycle;Signal;HPM_P1;HPM_P2
2024/01/20 00:00:38;;;;;;;40.40;12.90;;;;;;;3.44;100.00;99357.31;135282;1280;22606;-70
2024/01/20 00:04:01;;;;;;;39.10;12.60;;;;;;;3.57;100.00;99355.82;135284;1280;23944;-72
2024/01/20 00:07:03;;;;;;;40.00;12.90;;;;;;;3.51;100.00;99350.42;135296;1280;22538;-71
2024/01/20 00:10:10;;;;;;;;;;;;;;;3.46;100.00;99347.41;135331;1280;22539;-73
2024/01/20 00:13:13;;;;;;;36.70;12.20;;;;;;;3.64;100.00;99358.39;135319;1258;22681;-70
2024/01/20 00:16:16;;;;;;;38.80;13.20;;;;;;;3.72;100.00;99365.99;135302;1280;22649;-72
2024/01/20 00:19:18;;;;;;;34.90;12.10;;;;;;;3.45;100.00;99361.11;135275;1280;22543;-69
2024/01/20 00:22:21;;;;;;;42.20;12.80;;;;;;;3.61;100.00;99361.06;135332;1280;22545;-70
2024/01/20 00:25:24;;;;;;;36.30;12.10;;;;;;;3.59;100.00;99369.94;135321;1280;22598;-71
2024/01/20 00:28:27;;;;;;;40.60;13.50;;;;;;;3.60;100.00;99374.23;135284;1280;22536;-73
2024/01/20 00:31:29;;;;;;;33.60;10.50;;;;;;;3.45;100.00;99370.24;135253;1280;24242;-63
2024/01/20 00:34:32;;;;;;;39.90;11.40;;;;;;;3.42;100.00;99375.87;135308;1280;22592;-68
2024/01/20 00:37:35;;;;;;;39.00;11.70;;;;;;;3.48;100.00;99370.02;135340;1280;22634;-71
2024/01/20 00:40:37;;;;;;;33.10;11.10;;;;;;;3.51;100.00;99366.15;135301;1257;25489;-70
2024/01/20 00:43:40;;;;;;;35.40;11.80;;;;;;;3.55;100.00;99366.92;135304;1280;22589;-67
2024/01/20 00:46:43;;;;;;;35.60;11.20;;;;;;;3.69;100.00;99363.83;135293;1280;22650;-71
2024/01/20 00:49:47;;;;;;;39.10;12.20;;;;;;;3.81;100.00;99371.31;135313;1280;25351;-70
2024/01/20 00:52:49;;;;;;;34.80;11.70;;;;;;;3.93;100.00;99367.89;135298;1280;22562;-71
2024/01/20 00:55:52;;;;;;;38.70;11.70;;;;;;;3.84;100.00;99368.45;135308;1280;25495;-69
2024/01/20 00:58:55;;;;;;;28.60;9.60;;;;;;;3.70;100.00;99370.02;135277;1280;25429;-70
2024/01/20 01:01:57;;;;;;;37.90;12.10;;;;;;;3.69;100.00;99367.63;135319;1280;22652;-71
2024/01/20 01:05:00;;;;;;;34.70;10.00;;;;;;;3.70;100.00;99370.20;135315;1280;25316;-69
2024/01/20 01:08:03;;;;;;;31.60;9.50;;;;;;;3.44;100.00;99370.97;135332;1280;23007;-70
2024/01/20 01:11:05;;;;;;;;;;;;;;;3.44;100.00;99378.06;135309;1280;22520;-69
2024/01/20 01:14:08;;;;;;;35.90;11.00;;;;;;;3.58;100.00;99370.48;135323;1280;25413;-68
2024/01/20 01:17:11;;;;;;;29.40;10.10;;;;;;;3.51;100.00;99368.73;135302;1280;22532;-67
2024/01/20 01:20:14;;;;;;;30.20;9.30;;;;;;;3.55;100.00;99377.63;135277;1280;22629;-66
2024/01/20 01:23:16;;;;;;;32.10;9.50;;;;;;;3.56;100.00;99374.84;135294;1257;22541;-71
2024/01/20 01:26:19;;;;;;;35.40;10.40;;;;;;;3.49;100.00;99379.86;135340;1280;22539;-71
2024/01/20 01:29:22;;;;;;;36.70;10.10;;;;;;;3.46;100.00;99378.73;135292;1280;24214;-69
2024/01/20 01:32:25;;;;;;;36.70;11.50;;;;;;;3.62;100.00;99374.73;135245;1280;22595;-68
2024/01/20 01:35:28;;;;;;;30.30;10.00;;;;;;;3.78;100.00;99377.95;135254;1280;24388;-73
2024/01/20 01:38:30;;;;;;;39.50;11.50;;;;;;;3.80;100.00;99370.46;135305;1280;22556;-72
2024/01/20 01:41:33;;;;;;;;;;;;;;;3.71;100.00;99375.86;135308;1280;22518;-71
2024/01/20 01:44:35;;;;;;;36.40;11.70;;;;;;;3.78;100.00;99377.44;135307;1280;22547;-70
2024/01/20 01:47:38;;;;;;;36.80;11.10;;;;;;;3.77;100.00;99385.77;135311;1280;22642;-73
2024/01/20 01:50:41;;;;;;;36.10;10.60;;;;;;;3.66;100.00;99383.44;135271;1280;22542;-63
2024/01/20 01:53:44;;;;;;;34.50;11.20;;;;;;;3.67;100.00;99381.16;135286;1280;22616;-72
2024/01/20 01:56:46;;;;;;;37.40;11.80;;;;;;;3.48;100.00;99376.23;135268;1280;25210;-70
2024/01/20 01:59:49;;;;;;;37.20;11.20;;;;;;;3.52;100.00;99374.77;135292;1280;22536;-75
2024/01/20 02:02:52;;;;;;;30.60;9.60;;;;;;;3.63;100.00;99375.54;135290;1280;25279;-68
2024/01/20 02:05:55;;;;;;;34.40;10.20;;;;;;;3.66;100.00;99382.39;135297;1280;25259;-70
2024/01/20 02:08:57;;;;;;;34.90;10.30;;;;;;;3.51;100.00;99380.51;135267;1280;22546;-72
2024/01/20 02:12:00;;;;;;;;;;;;;;;3.56;100.00;99381.59;135281;1280;24236;-66
2024/01/20 02:15:03;;;;;;;36.10;11.20;;;;;;;3.50;100.00;99379.33;135267;1280;23735;-69
2024/01/20 02:18:05;;;;;;;37.90;10.70;;;;;;;3.49;100.00;99378.27;135298;1280;22541;-71
2024/01/20 02:21:08;;;;;;;33.30;10.00;;;;;;;3.42;100.00;99379.16;135284;1280;24237;-73
2024/01/20 02:24:12;;;;;;;34.80;9.90;;;;;;;3.27;100.00;99377.92;135297;1280;22549;-64
2024/01/20 02:27:14;;;;;;;36.00;10.90;;;;;;;3.24;100.00;99379.73;135286;1280;22557;-70
2024/01/20 02:30:17;;;;;;;29.90;9.70;;;;;;;3.17;100.00;99385.57;135277;1280;22522;-70
2024/01/20 02:33:20;;;;;;;33.80;10.10;;;;;;;3.16;100.00;99383.73;135252;1280;22571;-61
2024/01/20 02:36:22;;;;;;;31.20;9.70;;;;;;;2.98;100.00;99392.05;135278;1280;22549;-69
2024/01/20 02:39:25;;;;;;;32.40;9.90;;;;;;;2.87;100.00;99404.87;135306;1280;22546;-70
2024/01/20 02:42:28;;;;;;;32.70;9.60;;;;;;;2.88;100.00;99407.95;135318;1280;25435;-68
2024/01/20 02:45:31;;;;;;;35.00;11.00;;;;;;;2.76;100.00;99408.88;135253;1280;22552;-68
2024/01/20 02:48:33;;;;;;;28.90;9.40;;;;;;;2.65;100.00;99413.06;135275;1280;22567;-72
2024/01/20 02:51:36;;;;;;;33.90;9.60;;;;;;;2.56;100.00;99411.16;135290;1280;22705;-68
2024/01/20 02:54:39;;;;;;;36.10;10.40;;;;;;;2.41;100.00;99418.36;135328;1280;25435;-70
2024/01/20 02:57:41;;;;;;;35.50;9.70;;;;;;;2.37;100.00;99423.95;135257;1280;22562;-71
2024/01/20 03:00:44;;;;;;;31.40;8.50;;;;;;;2.43;100.00;99425.04;135292;1280;22558;-65
2024/01/20 03:03:48;;;;;;;34.50;10.20;;;;;;;2.54;100.00;99417.09;135290;1280;22547;-73
2024/01/20 03:06:51;;;;;;;33.10;10.60;;;;;;;2.51;100.00;99413.35;135295;1280;25273;-73
2024/01/20 03:09:54;;;;;;;35.90;10.00;;;;;;;2.59;100.00;99409.40;135254;1280;22594;-68
2024/01/20 03:12:57;;;;;;;33.30;10.20;;;;;;;2.39;100.00;99398.88;135266;1274;22541;-70
2024/01/20 03:16:00;;;;;;;33.00;9.80;;;;;;;2.43;100.00;99395.88;135300;1280;22547;-70
2024/01/20 03:19:02;;;;;;;31.70;8.20;;;;;;;2.40;100.00;99399.05;135231;1280;22568;-70
2024/01/20 03:22:05;;;;;;;32.40;9.30;;;;;;;2.34;100.00;99400.02;135277;1280;22547;-70
2024/01/20 03:25:08;;;;;;;32.50;9.00;;;;;;;2.18;100.00;99399.95;135300;1280;22553;-70
2024/01/20 03:28:11;;;;;;;29.80;8.40;;;;;;;2.11;100.00;99403.36;135323;1280;22563;-67
2024/01/20 03:31:13;;;;;;;32.60;8.80;;;;;;;2.09;100.00;99400.27;135323;1280;22663;-66
2024/01/20 03:34:16;;;;;;;25.80;7.70;;;;;;;2.13;100.00;99403.85;135242;1280;25451;-64
2024/01/20 03:37:19;;;;;;;36.10;9.40;;;;;;;2.26;100.00;99400.69;135186;1280;145980;-69
2024/01/20 03:40:21;;;;;;;33.70;8.30;;;;;;;2.21;100.00;99400.41;135309;1280;22562;-70
2024/01/20 03:43:24;;;;;;;29.30;9.30;;;;;;;2.11;100.00;99402.83;135330;1280;22542;-71
2024/01/20 03:46:27;;;;;;;29.20;7.60;;;;;;;2.22;100.00;99396.43;135305;1280;25371;-69
2024/01/20 03:49:29;;;;;;;35.70;9.00;;;;;;;2.25;100.00;99394.13;135263;1280;22537;-70
2024/01/20 03:52:32;;;;;;;30.20;8.30;;;;;;;2.44;100.00;99384.29;135266;1280;22550;-68
2024/01/20 03:55:35;;;;;;;34.70;8.70;;;;;;;2.31;100.00;99375.89;135305;1280;22574;-65
2024/01/20 03:58:37;;;;;;;27.20;8.20;;;;;;;2.55;100.00;99384.26;135267;1280;22586;-68
2024/01/20 04:01:40;;;;;;;27.70;8.60;;;;;;;2.65;100.00;99386.30;135267;1280;22542;-71
2024/01/20 04:04:43;;;;;;;29.90;8.00;;;;;;;2.74;100.00;99391.30;135301;1280;22535;-65
2024/01/20 04:07:46;;;;;;;31.70;9.10;;;;;;;2.87;100.00;99389.52;135283;1280;22580;-69
2024/01/20 04:10:48;;;;;;;32.70;8.40;;;;;;;2.81;100.00;99388.74;135286;1280;22543;-72
2024/01/20 04:13:51;;;;;;;30.80;8.00;;;;;;;2.79;100.00;99388.63;135285;1280;22594;-71
2024/01/20 04:16:54;;;;;;;34.70;9.90;;;;;;;2.86;100.00;99394.35;135304;1280;26580;-71
2024/01/20 04:19:56;;;;;;;30.00;8.50;;;;;;;2.87;100.00;99384.14;135266;1280;26021;-71
2024/01/20 04:22:59;;;;;;;35.30;9.70;;;;;;;2.81;100.00;99398.60;135287;1280;22546;-71
2024/01/20 04:26:02;;;;;;;31.80;9.70;;;;;;;2.78;100.00;99391.41;135273;1280;25419;-65
2024/01/20 04:29:04;;;;;;;31.40;8.90;;;;;;;2.63;100.00;99396.70;135284;1280;22561;-71
2024/01/20 04:32:07;;;;;;;30.50;7.80;;;;;;;2.51;100.00;99405.91;135273;1280;22543;-73
2024/01/20 04:35:10;;;;;;;29.60;8.90;;;;;;;2.54;100.00;99411.91;135290;1280;22541;-72
2024/01/20 04:38:12;;;;;;;32.10;8.40;;;;;;;2.65;100.00;99407.90;135290;1280;22553;-68
2024/01/20 04:41:15;;;;;;;35.90;8.60;;;;;;;2.76;100.00;99409.92;135332;1261;22566;-73
2024/01/20 04:44:18;;;;;;;32.40;8.80;;;;;;;2.75;100.00;99412.53;135342;1280;25353;-66
2024/01/20 04:47:20;;;;;;;28.70;8.90;;;;;;;2.83;100.00;99407.38;135274;1280;22541;-71
2024/01/20 04:50:23;;;;;;;30.40;8.80;;;;;;;2.88;100.00;99422.13;135299;1280;22554;-68
2024/01/20 04:53:26;;;;;;;33.10;10.00;;;;;;;3.00;100.00;99417.21;135307;1280;25341;-68
2024/01/20 04:56:28;;;;;;;30.00;8.10;;;;;;;2.89;100.00;99412.61;135299;1261;22806;-72
2024/01/20 04:59:31;;;;;;;29.20;8.90;;;;;;;2.84;100.00;99413.21;135271;1280;23008;-73
2024/01/20 05:02:35;;;;;;;30.70;8.50;;;;;;;2.81;100.00;99417.95;135268;1280;25398;-69
2024/01/20 05:05:38;;;;;;;30.40;8.50;;;;;;;2.87;100.00;99415.75;135311;1280;22549;-71
2024/01/20 05:08:41;;;;;;;38.70;12.50;;;;;;;3.00;100.00;99411.02;135265;1280;25259;-70
2024/01/20 05:11:43;;;;;;;34.70;10.30;;;;;;;2.94;100.00;99404.21;135295;1280;22566;-69
2024/01/20 05:14:46;;;;;;;38.10;11.30;;;;;;;2.88;100.00;99410.55;135307;1280;22532;-71
2024/01/20 05:17:49;;;;;;;32.50;10.00;;;;;;;2.75;100.00;99423.41;135262;1280;22574;-75
2024/01/20 05:20:51;;;;;;;30.30;8.60;;;;;;;2.71;100.00;99431.77;135290;1280;22550;-73
2024/01/20 05:23:54;;;;;;;29.80;9.80;;;;;;;2.57;100.00;99437.05;135319;1280;22650;-67
2024/01/20 05:26:57;;;;;;;38.30;9.30;;;;;;;2.54;100.00;99451.45;135280;1280;22601;-70
2024/01/20 05:30:00;;;;;;;35.70;9.40;;;;;;;2.64;100.00;99452.45;135326;1280;25359;-69
2024/01/20 05:33:02;;;;;;;34.40;10.10;;;;;;;2.70;100.00;99450.13;135294;1280;22997;-70
2024/01/20 05:36:05;;;;;;;30.00;8.30;;;;;;;2.67;100.00;99451.56;135268;1280;22546;-61
2024/01/20 05:39:08;;;;;;;30.70;8.60;;;;;;;2.68;100.00;99440.29;135262;1280;25268;-69
2024/01/20 05:42:10;;;;;;;28.90;8.50;;;;;;;2.83;100.00;99438.11;135315;1280;22564;-70
2024/01/20 05:45:14;;;;;;;30.00;8.40;;;;;;;3.03;100.00;99440.64;135314;1280;22535;-68
2024/01/20 05:48:17;;;;;;;22.50;6.40;;;;;;;2.91;100.00;99445.56;135303;1280;22526;-70
2024/01/20 05:51:20;;;;;;;31.30;8.50;;;;;;;2.73;100.00;99445.03;135345;1280;22546;-69
2024/01/20 05:54:22;;;;;;;26.90;7.80;;;;;;;2.66;100.00;99448.29;135315;1280;22568;-67
2024/01/20 05:57:25;;;;;;;31.40;8.60;;;;;;;2.71;100.00;99451.47;135329;1280;25242;-67
2024/01/20 06:00:28;;;;;;;26.40;7.00;;;;;;;2.72;100.00;99454.05;135288;1280;22564;-67
2024/01/20 06:03:31;;;;;;;30.60;8.80;;;;;;;2.70;100.00;99454.77;135313;1280;22627;-73
2024/01/20 06:06:34;;;;;;;29.10;7.50;;;;;;;2.61;100.00;99456.31;135218;1262;22536;-69
2024/01/20 06:09:37;;;;;;;32.50;7.90;;;;;;;2.62;100.00;99452.85;135323;1280;26640;-70
2024/01/20 06:12:39;;;;;;;30.20;8.40;;;;;;;2.57;100.00;99453.80;135333;1280;22551;-71
2024/01/20 06:15:42;;;;;;;31.80;7.90;;;;;;;2.49;100.00;99463.63;81439;1280;1016150;-69
2024/01/20 06:18:45;;;;;;;28.70;7.20;;;;;;;2.47;100.00;99467.95;67635;1280;1016749;-69
2024/01/20 06:21:48;;;;;;;28.20;7.50;;;;;;;2.54;100.00;99477.69;67619;1281;1016817;-69
2024/01/20 06:24:51;;;;;;;29.40;8.90;;;;;;;2.51;100.00;99476.34;67578;1280;1016404;-68
2024/01/20 06:27:53;;;;;;;;;;;;;;;2.54;100.00;99478.38;67616;1280;1016462;-65
2024/01/20 06:30:56;;;;;;;27.20;7.50;;;;;;;2.56;100.00;99482.46;67640;1280;1016263;-69
2024/01/20 06:33:59;;;;;;;26.20;6.80;;;;;;;2.61;100.00;99480.66;67592;1280;1016394;-69
2024/01/20 06:37:02;;;;;;;31.20;7.70;;;;;;;2.59;100.00;99482.95;67644;1280;1016016;-69
2024/01/20 06:40:05;;;;;;;26.80;8.00;;;;;;;2.56;100.00;99480.23;67558;1280;1016092;-69
2024/01/20 06:43:09;;;;;;;;;;;;;;;2.64;100.00;99481.48;67592;1280;1017407;-61
2024/01/20 06:46:12;;;;;;;31.40;7.30;;;;;;;2.57;100.00;99482.80;67572;1280;1016473;-69
2024/01/20 06:49:14;;;;;;;26.60;6.60;;;;;;;2.64;100.00;99488.20;67620;1259;1016362;-60
2024/01/20 06:52:17;;;;;;;;;;;;;;;2.68;100.00;99488.14;67591;1280;1016497;-69
2024/01/20 06:55:20;;;;;;;27.50;7.30;;;;;;;2.72;100.00;99491.86;67633;1280;1016489;-69
2024/01/20 06:58:23;;;;;;;33.20;9.40;;;;;;;2.85;100.00;99496.80;67562;1280;1016418;-69
2024/01/20 07:01:26;;;;;;;34.30;9.20;;;;;;;3.01;100.00;99488.89;67587;1280;1017116;-69
2024/01/20 07:04:29;;;;;;;31.10;8.00;;;;;;;3.06;100.00;99484.83;67611;1280;1016101;-70
2024/01/20 07:07:31;;;;;;;32.60;8.60;;;;;;;3.05;100.00;99490.55;67613;1280;1016452;-69
2024/01/20 07:10:34;;;;;;;;;;;;;;;2.87;100.00;99499.87;67601;1280;1016172;-69
2024/01/20 07:13:37;;;;;;;28.10;7.10;;;;;;;2.98;100.00;99502.78;67619;1280;1016004;-68
2024/01/20 07:16:39;;;;;;;;;;;;;;;2.87;100.00;99509.05;67573;1280;1016497;-69
2024/01/20 07:19:42;;;;;;;25.30;6.20;;;;;;;2.98;100.00;99516.61;67633;1280;1016157;-69
2024/01/20 07:22:45;;;;;;;;;;;;;;;2.99;100.00;99513.30;67612;1280;1016336;-69
2024/01/20 07:25:48;;;;;;;34.10;9.60;;;;;;;2.94;100.00;99507.88;67548;1280;1016452;-69
2024/01/20 07:28:50;;;;;;;;;;;;;;;2.97;100.00;99510.77;67638;1281;1017146;-69
2024/01/20 07:31:53;;;;;;;29.90;9.00;;;;;;;3.00;100.00;99511.89;67588;1280;1016426;-69
2024/01/20 07:34:57;;;;;;;33.80;8.30;;;;;;;3.03;100.00;99519.79;67618;1280;1016079;-69
2024/01/20 07:38:00;;;;;;;;;;;;;;;3.10;100.00;99514.81;67605;1281;1016596;-69
2024/01/20 07:41:02;;;;;;;24.70;6.50;;;;;;;2.98;100.00;99525.94;67604;1280;1016504;-69
2024/01/20 07:44:05;;;;;;;;;;;;;;;2.97;100.00;99534.77;67651;1280;1016236;-68
2024/01/20 07:47:08;;;;;;;30.70;8.20;;;;;;;3.10;100.00;99554.58;67613;1280;1016472;-69
2024/01/20 07:50:10;;;;;;;;;;;;;;;3.41;100.00;99546.36;67620;1280;1016410;-69
2024/01/20 07:53:13;;;;;;;25.70;7.60;;;;;;;3.43;100.00;99547.02;67612;1280;1016354;-69
2024/01/20 07:56:16;;;;;;;;;;;;;;;3.60;100.00;99549.60;67604;1280;1016451;-60
2024/01/20 07:59:18;;;;;;;28.80;6.90;;;;;;;3.65;100.00;99555.55;67602;1280;1016515;-69
2024/01/20 08:02:21;;;;;;;;;;;;;;;3.68;100.00;99558.63;67611;1280;1016442;-69
2024/01/20 08:05:24;;;;;;;30.00;7.80;;;;;;;3.82;100.00;99564.38;67561;1280;1016269;-67
2024/01/20 08:08:26;;;;;;;;;;;;;;;3.85;100.00;99560.48;67634;1280;1016512;-69
2024/01/20 08:11:29;;;;;;;23.50;6.10;;;;;;;3.98;100.00;99566.44;67618;1281;1016099;-69
2024/01/20 08:14:32;;;;;;;;;;;;;;;4.20;100.00;99569.73;67595;1280;1016172;-69
2024/01/20 08:17:35;;;;;;;25.80;6.80;;;;;;;4.50;100.00;99568.89;67619;1280;1016432;-65
2024/01/20 08:20:37;;;;;;;;;;;;;;;4.46;100.00;99571.73;67592;1281;1016473;-69
2024/01/20 08:23:40;;;;;;;27.50;7.80;;;;;;;4.62;100.00;99567.39;67580;1280;1016458;-60
2024/01/20 08:26:44;;;;;;;;;;;;;;;4.91;100.00;99573.23;67642;1280;1016277;-69
2024/01/20 08:29:46;;;;;;;28.90;7.00;;;;;;;4.95;100.00;99564.30;67579;1280;1016163;-69
2024/01/20 08:32:49;;;;;;;26.10;7.30;;;;;;;4.99;100.00;99576.31;67617;1280;1016328;-60
2024/01/20 08:35:52;;;;;;;;;;;;;;;5.13;95.03;99561.73;67580;1280;1016470;-70
2024/01/20 08:38:54;;;;;;;26.60;8.20;;;;;;;4.88;95.09;99558.23;67601;1280;1016276;-66
2024/01/20 08:41:57;;;;;;;;;;;;;;;4.84;94.77;99583.30;67611;1280;1016510;-63
2024/01/20 08:45:00;;;;;;;25.00;6.90;;;;;;;4.85;94.58;99579.81;67641;1280;1016491;-70
2024/01/20 08:48:02;;;;;;;;;;;;;;;5.02;93.66;99582.65;67596;1280;1016233;-69
2024/01/20 08:51:05;;;;;;;27.50;8.40;;;;;;;5.19;93.07;99576.49;67646;1280;1016411;-67
2024/01/20 08:54:08;;;;;;;;;;;;;;;5.31;92.71;99576.86;67646;1280;1016301;-69
2024/01/20 08:57:10;;;;;;;22.20;6.70;;;;;;;5.27;92.39;99585.27;67600;1280;1016369;-62
2024/01/20 09:00:13;;;;;;;;;;;;;;;5.12;90.81;99594.36;67651;1280;1016301;-60
2024/01/20 09:03:16;;;;;;;28.90;7.60;;;;;;;5.11;91.65;99594.72;67632;1281;1016419;-66
2024/01/20 09:06:19;;;;;;;26.50;7.80;;;;;;;5.19;91.34;99596.23;67618;1266;1016431;-69
2024/01/20 09:09:22;;;;;;;;;;;;;;;5.36;91.04;99595.27;67667;1280;1016422;-70
2024/01/20 09:12:24;;;;;;;29.20;6.80;;;;;;;5.38;89.98;99597.48;67593;1281;1016240;-68
2024/01/20 09:15:27;;;;;;;;;;;;;;;5.21;89.34;99604.52;67630;1280;1016463;-69
2024/01/20 09:18:30;;;;;;;27.00;7.60;;;;;;;5.00;90.39;99607.32;67659;1280;1016257;-70
2024/01/20 09:21:32;;;;;;;;;;;;;;;5.13;89.80;99596.75;67618;1280;1016231;-70
2024/01/20 09:24:35;;;;;;;25.10;7.40;;;;;;;5.23;89.35;99601.19;67620;1280;1016509;-69
2024/01/20 09:27:38;;;;;;;25.70;7.30;;;;;;;5.03;89.34;99610.89;67651;1280;1016436;-70
2024/01/20 09:30:41;;;;;;;;;;;;;;;5.23;89.21;99607.94;67568;1280;1016465;-70
2024/01/20 09:33:45;;;;;;;25.20;7.80;;;;;;;5.37;88.57;99606.88;67644;1280;1016047;-69
2024/01/20 09:36:49;;;;;;;29.40;9.10;;;;;;;5.58;88.24;99601.61;67646;1280;1016487;-69
2024/01/20 09:39:52;;;;;;;30.90;9.10;;;;;;;5.70;87.21;99601.11;67578;1280;1016480;-70
2024/01/20 09:42:55;;;;;;;28.90;9.40;;;;;;;5.82;85.11;99591.38;67609;1280;1016340;-68
2024/01/20 09:45:58;;;;;;;;;;;;;;;5.78;84.06;99593.05;67654;1280;1016450;-69
2024/01/20 09:49:00;;;;;;;31.90;9.00;;;;;;;5.85;80.55;99597.38;67666;1280;1016520;-70
2024/01/20 09:52:03;;;;;;;;;;;;;;;5.63;81.30;99593.49;67612;1280;1019187;-70
2024/01/20 09:55:06;;;;;;;26.60;8.20;;;;;;;5.48;81.34;99598.41;67653;1280;1016489;-66
2024/01/20 09:58:08;;;;;;;;;;;;;;;5.58;81.05;99606.28;67679;1280;1016467;-70
2024/01/20 10:01:11;;;;;;;27.50;8.80;;;;;;;6.02;79.53;99596.72;67577;1281;1016457;-70
2024/01/20 10:04:14;;;;;;;;;;;;;;;6.03;79.13;99596.36;67655;1280;1016479;-70
2024/01/20 10:07:16;;;;;;;29.20;8.80;;;;;;;6.07;79.06;99601.42;67673;1280;1016404;-60
2024/01/20 10:10:20;;;;;;;;;;;;;;;6.40;77.97;99589.99;67618;1280;1018827;-70
2024/01/20 10:13:22;;;;;;;26.80;7.90;;;;;;;6.42;77.11;99603.66;67675;1280;1016018;-70
2024/01/20 10:16:25;;;;;;;;;;;;;;;6.48;76.61;99607.13;67600;1280;1016426;-65
2024/01/20 10:19:28;;;;;;;28.90;8.50;;;;;;;6.41;76.34;99613.79;67643;1280;1016497;-69
2024/01/20 10:22:30;;;;;;;;;;;;;;;6.68;76.51;99593.13;67632;1280;1016257;-69
2024/01/20 10:25:33;;;;;;;25.50;7.90;;;;;;;6.96;75.24;99602.45;67599;1280;1016473;-70
2024/01/20 10:28:36;;;;;;;;;;;;;;;6.94;73.07;99604.27;67649;1280;1017952;-66
2024/01/20 10:31:39;;;;;;;25.40;7.30;;;;;;;6.88;73.88;99592.45;67629;1281;1018312;-60
2024/01/20 10:34:41;;;;;;;;;;;;;;;6.76;74.41;99593.55;67635;1280;1016315;-60
2024/01/20 10:37:44;;;;;;;26.70;7.80;;;;;;;7.07;72.08;99595.48;67635;1280;1016386;-70
2024/01/20 10:40:50;;;;;;;28.00;8.40;;;;;;;6.85;72.77;99593.77;67631;1280;1017398;-70
2024/01/20 10:43:52;;;;;;;28.40;8.80;;;;;;;7.21;72.10;99589.91;67654;1280;1016513;-69
2024/01/20 10:46:55;;;;;;;28.80;8.10;;;;;;;7.39;70.92;99585.83;67593;1280;1016024;-71
2024/01/20 10:49:58;;;;;;;31.90;8.70;;;;;;;7.26;71.12;99581.59;67611;1280;1016492;-70
2024/01/20 10:53:01;;;;;;;;;;;;;;;7.24;71.41;99570.69;67640;1280;1016396;-70
2024/01/20 10:56:04;;;;;;;27.90;8.80;;;;;;;7.19;67.80;99578.38;67605;1280;1016444;-71
2024/01/20 10:59:09;;;;;;;29.30;8.80;;;;;;;7.24;66.17;99575.92;67656;1280;1018983;-60
2024/01/20 11:02:11;;;;;;;29.10;8.90;;;;;;;7.00;66.56;99578.48;67589;1280;1016443;-70
2024/01/20 11:05:14;;;;;;;;;;;;;;;6.95;65.97;99567.70;67635;1280;1015930;-66
2024/01/20 11:08:17;;;;;;;25.70;7.90;;;;;;;6.88;64.63;99566.20;67661;1280;1016345;-70
2024/01/20 11:11:19;;;;;;;;;;;;;;;7.16;63.87;99577.40;67602;1280;1015970;-72
2024/01/20 11:14:22;;;;;;;30.60;9.20;;;;;;;7.28;63.30;99570.39;67637;1280;1015977;-71
2024/01/20 11:17:25;;;;;;;28.30;8.60;;;;;;;7.52;62.68;99564.46;67654;1280;1016321;-71
2024/01/20 11:20:27;;;;;;;;;;;;;;;7.50;60.67;99565.41;67643;1280;1016448;-61
2024/01/20 11:23:30;;;;;;;26.60;8.10;;;;;;;7.42;59.59;99567.28;67597;1280;1016470;-71
2024/01/20 11:26:33;;;;;;;;;;;;;;;7.12;59.53;99561.55;67667;1280;1016466;-71
2024/01/20 11:29:36;;;;;;;27.40;7.10;;;;;;;7.37;59.28;99554.44;67626;1280;1016117;-69
2024/01/20 11:32:38;;;;;;;24.20;7.90;;;;;;;7.25;59.21;99553.79;67609;1280;1016304;-70
2024/01/20 11:35:41;;;;;;;;;;;;;;;7.20;58.62;99564.77;67644;1280;1020046;-71
2024/01/20 11:38:44;;;;;;;22.60;6.80;;;;;;;7.17;58.35;99562.92;67622;1280;1016414;-71
2024/01/20 11:41:48;;;;;;;22.40;7.00;;;;;;;7.12;58.31;99564.16;67610;1280;1016443;-71
2024/01/20 11:44:52;;;;;;;;;;;;;;;6.80;59.03;99558.82;67622;1280;1016460;-70
2024/01/20 11:47:55;;;;;;;24.10;7.00;;;;;;;6.69;59.34;99561.09;67613;1280;1017164;-71
2024/01/20 11:50:59;;;;;;;23.40;7.60;;;;;;;6.84;58.77;99576.59;67664;1280;1016462;-71
2024/01/20 11:54:02;;;;;;;24.70;6.30;;;;;;;7.09;58.59;99557.48;67620;1280;1016376;-71
2024/01/20 11:57:05;;;;;;;;;;;;;;;7.35;57.90;99571.70;67627;1280;1016453;-71
2024/01/20 12:00:09;;;;;;;28.30;9.10;;;;;;;7.39;58.46;99567.02;67585;1280;1016628;-70
2024/01/20 12:03:12;;;;;;;26.50;7.40;;;;;;;7.53;58.04;99564.09;67615;1280;1016441;-71
2024/01/20 12:06:15;;;;;;;;;;;;;;;7.39;58.01;99571.02;67684;1280;1016674;-69
2024/01/20 12:09:18;;;;;;;24.50;6.50;;;;;;;7.26;58.19;99579.34;67597;1280;1016389;-64
2024/01/20 12:12:22;;;;;;;;;;;;;;;7.16;58.51;99578.30;67688;1280;1017190;-63
2024/01/20 12:15:25;;;;;;;21.40;5.20;;;;;;;7.04;58.74;99582.86;67651;1280;1016450;-71
2024/01/20 12:18:28;;;;;;;;;;;;;;;6.79;59.93;99570.48;67658;1280;1016453;-59
2024/01/20 12:21:30;;;;;;;26.40;7.00;;;;;;;6.93;59.70;99561.16;67613;1280;1016370;-66
2024/01/20 12:24:33;;;;;;;;;;;;;;;7.02;59.23;99569.20;67653;1280;1016408;-70
2024/01/20 12:27:36;;;;;;;29.60;8.60;;;;;;;6.81;59.76;99572.17;67673;1280;1016575;-70
2024/01/20 12:30:39;;;;;;;27.90;8.10;;;;;;;6.91;59.57;99577.92;67605;1280;1016248;-71
2024/01/20 12:33:41;;;;;;;;;;;;;;;6.82;59.70;99565.02;67619;1280;1016430;-71
2024/01/20 12:36:44;;;;;;;27.20;7.70;;;;;;;7.02;59.71;99565.71;67612;1280;1016483;-70
2024/01/20 12:39:47;;;;;;;;;;;;;;;6.97;59.55;99566.23;67615;1280;1016356;-66
2024/01/20 12:42:49;;;;;;;27.90;7.00;;;;;;;7.18;59.34;99571.26;67654;1280;1016893;-71
2024/01/20 12:45:52;;;;;;;;;;;;;;;7.25;58.50;99567.37;67671;1280;1016739;-71
2024/01/20 12:48:55;;;;;;;28.90;7.60;;;;;;;7.23;57.97;99560.11;67577;1280;1016454;-69
2024/01/20 12:51:57;;;;;;;;;;;;;;;7.06;58.17;99577.25;67641;1280;1016543;-71
2024/01/20 12:55:00;;;;;;;30.60;8.70;;;;;;;6.93;58.38;99566.56;67614;1280;1016418;-59
2024/01/20 12:58:03;;;;;;;;;;;;;;;6.93;57.39;99566.88;67633;1280;1016460;-70
2024/01/20 13:01:07;;;;;;;25.80;7.50;;;;;;;6.81;57.71;99560.89;67658;1280;1016511;-71
2024/01/20 13:04:10;;;;;;;26.20;8.20;;;;;;;6.96;57.55;99564.71;67685;1280;1016107;-72
2024/01/20 13:07:13;;;;;;;22.80;7.20;;;;;;;6.93;57.67;99560.14;67615;1280;1016325;-71
2024/01/20 13:10:15;;;;;;;;;;;;;;;6.84;58.10;99563.04;67650;1280;1016272;-71
2024/01/20 13:13:18;;;;;;;21.00;5.10;;;;;;;6.64;58.51;99567.00;67654;1280;1016510;-61
2024/01/20 13:16:21;;;;;;;25.60;6.90;;;;;;;6.82;57.84;99560.13;67641;1280;1017670;-71
2024/01/20 13:19:24;;;;;;;;;;;;;;;7.19;57.26;99559.89;67674;1280;1016949;-71
2024/01/20 13:22:27;;;;;;;26.40;7.30;;;;;;;7.18;57.23;99554.73;67633;1280;1016545;-66
2024/01/20 13:25:29;;;;;;;25.10;7.20;;;;;;;7.08;57.20;99558.19;67649;1280;1016395;-69
2024/01/20 13:28:33;;;;;;;;;;;;;;;7.11;57.33;99558.80;67673;1280;1016361;-66
2024/01/20 13:31:36;;;;;;;26.40;6.90;;;;;;;7.14;57.00;99560.61;67644;1280;1016444;-71
2024/01/20 13:34:38;;;;;;;;;;;;;;;7.09;57.14;99565.50;67664;1280;1016485;-71
2024/01/20 13:37:41;;;;;;;26.20;7.40;;;;;;;6.95;57.52;99569.43;67619;1280;1016068;-70
2024/01/20 13:40:44;;;;;;;;;;;;;;;6.82;58.03;99569.54;67644;1280;1016460;-71
2024/01/20 13:43:47;;;;;;;24.80;7.40;;;;;;;6.93;57.50;99572.29;67619;1280;1016486;-71
2024/01/20 13:46:49;;;;;;;;;;;;;;;6.89;57.61;99568.06;67605;1280;1016435;-71
2024/01/20 13:49:52;;;;;;;28.80;7.90;;;;;;;7.03;57.04;99570.73;67647;1280;1016264;-71
2024/01/20 13:52:55;;;;;;;;;;;;;;;6.97;57.34;99570.23;67616;1280;1016458;-68
2024/01/20 13:55:58;;;;;;;25.90;8.00;;;;;;;6.85;57.48;99566.67;67662;1280;1017152;-67
2024/01/20 13:59:02;;;;;;;;;;;;;;;6.88;57.41;99569.86;67626;1280;1016202;-71
2024/01/20 14:02:05;;;;;;;26.30;6.80;;;;;;;6.75;57.70;99564.92;67605;1280;1016416;-71
2024/01/20 14:05:08;;;;;;;;;;;;;;;6.32;58.51;99567.85;67623;1280;1016480;-61
2024/01/20 14:08:10;;;;;;;22.70;5.80;;;;;;;6.00;59.09;99572.30;67667;1280;1016353;-70
2024/01/20 14:11:13;;;;;;;;;;;;;;;5.90;59.49;99569.14;67623;1280;1016583;-71
2024/01/20 14:14:16;;;;;;;23.90;6.10;;;;;;;5.85;59.73;99569.09;67618;1280;1016297;-68
2024/01/20 14:17:18;;;;;;;;;;;;;;;5.90;59.46;99569.64;67672;1280;1016477;-70